Time,TemperatureF,DewpointF,PressureIn,WindDirection,WindDirectionDegrees,WindSpeedMPH,WindSpeedGustMPH,Humidity,HourlyPrecipIn,Conditions,Clouds,dailyrainin,SoftwareType,DateUTC
2013-09-03 00:03:00,71.5,54.2,30.13,WSW,242,0.0,0.0,54,0.00,,---,0.00,VWS V14.01,2013-09-03 06:03:00,
2013-09-03 00:08:00,71.3,54.2,30.14,WSW,242,0.0,0.0,55,0.00,,---,0.00,VWS V14.01,2013-09-03 06:08:00,
2013-09-03 00:13:00,71.2,54.2,30.14,WSW,242,0.0,0.0,55,0.00,,---,0.00,VWS V14.01,2013-09-03 06:13:00,
2013-09-03 00:18:00,71.0,54.1,30.14,WSW,242,0.0,0.0,55,0.00,,---,0.00,VWS V14.01,2013-09-03 06:18:00,
2013-09-03 00:23:00,70.9,53.9,30.14,WSW,242,0.0,0.0,55,0.00,,---,0.00,VWS V14.01,2013-09-03 06:23:00,
2013-09-03 00:28:00,70.7,53.8,30.14,WSW,242,0.0,0.0,55,0.00,,---,0.00,VWS V14.01,2013-09-03 06:28:00,
2013-09-03 00:33:00,70.7,53.7,30.13,WSW,242,0.0,0.0,55,0.00,,---,0.00,VWS V14.01,2013-09-03 06:33:00,
2013-09-03 00:38:00,70.7,53.5,30.13,WSW,242,0.0,0.0,54,0.00,,---,0.00,VWS V14.01,2013-09-03 06:38:00,
2013-09-03 00:43:00,70.6,54.0,30.14,WSW,242,0.0,0.0,56,0.00,,---,0.00,VWS V14.01,2013-09-03 06:43:00,
2013-09-03 00:48:00,70.3,54.5,30.14,WSW,242,0.0,0.0,57,0.00,,---,0.00,VWS V14.01,2013-09-03 06:48:00,
2013-09-03 00:53:00,70.2,54.6,30.14,WSW,242,0.0,0.0,58,0.00,,---,0.00,VWS V14.01,2013-09-03 06:53:00,
2013-09-03 00:58:00,70.2,54.4,30.13,WSW,242,0.0,0.0,57,0.00,,---,0.00,VWS V14.01,2013-09-03 06:58:00,
2013-09-03 00:59:00,68.1,54.2,30.21,SSE,148,0.0,0.0,61,0.00,,---,0.00,VWS V14.01,2013-09-03 06:59:00,
2013-09-03 01:03:00,70.3,54.4,30.14,WSW,242,0.0,0.0,57,0.00,,---,0.00,VWS V14.01,2013-09-03 07:03:00,
2013-09-03 01:08:00,70.3,54.3,30.14,WSW,242,0.0,0.0,57,0.00,,---,0.00,VWS V14.01,2013-09-03 07:08:00,
2013-09-03 01:13:00,70.4,54.5,30.14,WSW,242,0.0,0.0,57,0.00,,---,0.00,VWS V14.01,2013-09-03 07:13:00,
2013-09-03 01:19:00,70.5,54.4,30.14,WSW,242,0.0,0.0,57,0.00,,---,0.00,VWS V14.01,2013-09-03 07:19:00,
2013-09-03 01:24:00,70.5,54.4,30.14,WSW,242,0.0,0.0,57,0.00,,---,0.00,VWS V14.01,2013-09-03 07:24:00,
2013-09-03 01:29:00,70.6,54.5,30.14,WSW,242,0.0,0.0,57,0.00,,---,0.00,VWS V14.01,2013-09-03 07:29:00,
2013-09-03 01:34:00,70.5,54.5,30.14,WSW,242,0.0,0.0,57,0.00,,---,0.00,VWS V14.01,2013-09-03 07:34:00,
2013-09-03 01:39:00,70.5,54.7,30.14,WSW,242,0.0,0.0,57,0.00,,---,0.00,VWS V14.01,2013-09-03 07:39:00,
2013-09-03 01:44:00,70.4,54.5,30.14,WSW,242,0.0,0.0,57,0.00,,---,0.00,VWS V14.01,2013-09-03 07:44:00,
2013-09-03 01:49:00,70.4,54.5,30.14,WSW,242,0.0,0.0,57,0.00,,---,0.00,VWS V14.01,2013-09-03 07:49:00,
2013-09-03 01:54:00,70.4,54.3,30.14,SSW,204,0.0,0.0,57,0.00,,---,0.00,VWS V14.01,2013-09-03 07:54:00,
2013-09-03 01:59:00,70.4,54.3,30.14,SSW,204,0.0,0.0,57,0.00,,---,0.00,VWS V14.01,2013-09-03 07:59:00,
2013-09-03 02:04:00,70.5,54.2,30.14,SSW,204,0.0,0.0,56,0.00,,---,0.00,VWS V14.01,2013-09-03 08:04:00,
2013-09-03 02:09:00,70.5,54.3,30.14,SSW,204,0.0,0.0,56,0.00,,---,0.00,VWS V14.01,2013-09-03 08:09:00,
2013-09-03 02:14:00,70.5,54.3,30.14,SSW,204,0.0,0.0,56,0.00,,---,0.00,VWS V14.01,2013-09-03 08:14:00,
2013-09-03 02:19:00,70.4,54.3,30.14,SSW,204,0.0,0.0,57,0.00,,---,0.00,VWS V14.01,2013-09-03 08:19:00,
2013-09-03 02:24:00,70.4,54.4,30.14,SSW,204,0.0,0.0,57,0.00,,---,0.00,VWS V14.01,2013-09-03 08:24:00,
2013-09-03 02:29:00,70.4,54.4,30.14,SSW,204,0.0,0.0,57,0.00,,---,0.00,VWS V14.01,2013-09-03 08:29:00,
2013-09-03 02:34:00,70.3,54.4,30.14,SSW,204,0.0,0.0,57,0.00,,---,0.00,VWS V14.01,2013-09-03 08:34:00,
2013-09-03 02:39:00,70.2,54.4,30.14,SSW,204,0.0,0.0,57,0.00,,---,0.00,VWS V14.01,2013-09-03 08:39:00,
2013-09-03 02:44:00,70.0,54.5,30.14,SSW,204,0.0,0.0,58,0.00,,---,0.00,VWS V14.01,2013-09-03 08:44:00,
2013-09-03 02:49:00,69.8,54.7,30.15,SSW,204,0.0,0.0,59,0.00,,---,0.00,VWS V14.01,2013-09-03 08:49:00,
2013-09-03 02:54:00,69.6,54.7,30.15,SSW,204,0.0,0.0,59,0.00,,---,0.00,VWS V14.01,2013-09-03 08:54:00,
2013-09-03 02:59:00,69.4,55.0,30.15,SSW,204,0.0,0.0,60,0.00,,---,0.00,VWS V14.01,2013-09-03 08:59:00,
2013-09-03 03:04:00,69.1,55.1,30.15,SSW,204,0.0,0.0,61,0.00,,---,0.00,VWS V14.01,2013-09-03 09:04:00,
2013-09-03 03:09:00,69.0,55.1,30.15,SSW,204,0.0,0.0,61,0.00,,---,0.00,VWS V14.01,2013-09-03 09:09:00,
2013-09-03 03:14:00,68.7,55.2,30.15,SSW,204,0.0,0.0,62,0.00,,---,0.00,VWS V14.01,2013-09-03 09:14:00,
2013-09-03 03:19:00,68.6,55.4,30.15,SSW,204,0.0,0.0,63,0.00,,---,0.00,VWS V14.01,2013-09-03 09:19:00,
2013-09-03 03:24:00,68.3,55.5,30.15,SSW,204,0.0,0.0,64,0.00,,---,0.00,VWS V14.01,2013-09-03 09:24:00,
2013-09-03 03:29:00,68.1,55.7,30.15,SSW,204,0.0,0.0,65,0.00,,---,0.00,VWS V14.01,2013-09-03 09:29:00,
2013-09-03 03:34:00,67.9,56.0,30.15,SSW,204,0.0,0.0,66,0.00,,---,0.00,VWS V14.01,2013-09-03 09:34:00,
2013-09-03 03:39:00,67.6,56.0,30.15,SSW,204,0.0,0.0,66,0.00,,---,0.00,VWS V14.01,2013-09-03 09:39:00,
2013-09-03 03:44:00,67.3,56.0,30.15,SSW,204,0.0,0.0,67,0.00,,---,0.00,VWS V14.01,2013-09-03 09:44:00,
2013-09-03 03:49:00,67.0,56.1,30.15,SSW,204,0.0,0.0,68,0.00,,---,0.00,VWS V14.01,2013-09-03 09:49:00,
2013-09-03 03:54:00,66.9,56.3,30.15,SSW,204,0.0,0.0,69,0.00,,---,0.00,VWS V14.01,2013-09-03 09:54:00,
2013-09-03 03:59:00,66.8,56.6,30.15,SSW,204,0.0,0.0,70,0.00,,---,0.00,VWS V14.01,2013-09-03 09:59:00,
2013-09-03 04:04:00,66.6,56.7,30.15,SSW,204,0.0,0.0,70,0.00,,---,0.00,VWS V14.01,2013-09-03 10:04:00,
2013-09-03 04:09:00,66.5,56.8,30.15,SSW,204,0.0,0.0,71,0.00,,---,0.00,VWS V14.01,2013-09-03 10:09:00,
2013-09-03 04:14:00,66.4,56.8,30.15,SSW,204,0.0,0.0,71,0.00,,---,0.00,VWS V14.01,2013-09-03 10:14:00,
2013-09-03 04:16:00,18.3,10.3,30.19,SSW,204,0.0,0.1,70,0.17,,---,0.01,VWS V14.01,2013-09-03 10:16:00,
2013-09-03 04:19:00,66.3,56.8,30.16,SSW,204,0.0,0.0,72,0.00,,---,0.00,VWS V14.01,2013-09-03 10:19:00,
2013-09-03 04:24:00,66.4,57.0,30.16,SSW,204,0.0,0.0,72,0.00,,---,0.00,VWS V14.01,2013-09-03 10:24:00,
2013-09-03 04:29:00,66.4,57.2,30.16,SSW,204,0.0,0.0,72,0.00,,---,0.00,VWS V14.01,2013-09-03 10:29:00,
2013-09-03 04:34:00,66.4,57.3,30.16,SSW,204,0.0,0.0,73,0.00,,---,0.00,VWS V14.01,2013-09-03 10:34:00,
2013-09-03 04:39:00,66.4,57.4,30.16,SSW,204,0.0,0.0,73,0.00,,---,0.00,VWS V14.01,2013-09-03 10:39:00,
2013-09-03 04:44:00,66.5,57.5,30.17,SSW,204,0.0,0.0,73,0.00,,---,0.00,VWS V14.01,2013-09-03 10:44:00,
2013-09-03 04:49:00,66.5,57.6,30.17,SSW,204,0.0,0.0,73,0.00,,---,0.00,VWS V14.01,2013-09-03 10:49:00,
2013-09-03 04:54:00,66.5,57.7,30.17,SSW,204,0.0,0.0,73,0.00,,---,0.00,VWS V14.01,2013-09-03 10:54:00,
2013-09-03 04:59:00,66.6,57.8,30.17,SSW,204,0.0,0.0,73,0.00,,---,0.00,VWS V14.01,2013-09-03 10:59:00,
2013-09-03 05:04:00,66.7,57.9,30.17,SSW,204,0.0,0.0,73,0.00,,---,0.00,VWS V14.01,2013-09-03 11:04:00,
2013-09-03 05:09:00,66.7,57.9,30.17,SSW,204,0.0,0.0,73,0.00,,---,0.00,VWS V14.01,2013-09-03 11:09:00,
2013-09-03 05:14:00,66.7,57.9,30.18,SSW,204,0.0,0.0,73,0.00,,---,0.00,VWS V14.01,2013-09-03 11:14:00,
2013-09-03 05:19:00,66.7,58.0,30.18,SSW,204,0.0,0.0,74,0.00,,---,0.00,VWS V14.01,2013-09-03 11:19:00,
2013-09-03 05:24:00,66.7,58.0,30.18,SSW,204,0.0,0.0,74,0.00,,---,0.00,VWS V14.01,2013-09-03 11:24:00,
2013-09-03 05:29:00,66.7,57.9,30.18,SSW,204,0.0,0.0,73,0.00,,---,0.00,VWS V14.01,2013-09-03 11:29:00,
2013-09-03 05:34:00,66.7,58.0,30.18,SSW,204,0.0,0.0,74,0.00,,---,0.00,VWS V14.01,2013-09-03 11:34:00,
2013-09-03 05:39:00,66.7,58.1,30.18,SSW,204,0.0,0.0,74,0.00,,---,0.00,VWS V14.01,2013-09-03 11:39:00,
2013-09-03 05:44:00,66.7,58.1,30.18,SSW,204,0.0,0.0,74,0.00,,---,0.00,VWS V14.01,2013-09-03 11:44:00,
2013-09-03 05:49:00,66.7,57.9,30.18,SSW,204,0.0,0.0,73,0.00,,---,0.00,VWS V14.01,2013-09-03 11:49:00,
2013-09-03 05:54:00,66.7,57.9,30.18,SSW,204,0.0,0.0,73,0.00,,---,0.00,VWS V14.01,2013-09-03 11:54:00,
2013-09-03 05:59:00,66.6,58.0,30.18,SSW,204,0.0,0.0,74,0.00,,---,0.00,VWS V14.01,2013-09-03 11:59:00,
2013-09-03 06:04:00,66.6,58.1,30.18,SSW,204,0.0,0.0,74,0.00,,---,0.00,VWS V14.01,2013-09-03 12:04:00,
2013-09-03 06:09:00,66.6,58.1,30.18,SSW,204,0.0,0.0,74,0.00,,---,0.00,VWS V14.01,2013-09-03 12:09:00,
2013-09-03 06:14:00,66.6,58.0,30.19,SSW,204,0.0,0.0,74,0.00,,---,0.00,VWS V14.01,2013-09-03 12:14:00,
2013-09-03 06:19:00,66.5,58.0,30.19,SSW,204,0.0,0.0,74,0.00,,---,0.00,VWS V14.01,2013-09-03 12:19:00,
2013-09-03 06:24:00,66.5,58.0,30.19,SSW,204,0.0,0.0,74,0.00,,---,0.00,VWS V14.01,2013-09-03 12:24:00,
2013-09-03 06:29:00,66.5,57.9,30.19,SSW,204,0.0,0.0,74,0.00,,---,0.00,VWS V14.01,2013-09-03 12:29:00,
2013-09-03 06:34:00,66.5,57.9,30.20,SSW,204,0.0,0.0,74,0.00,,---,0.00,VWS V14.01,2013-09-03 12:34:00,
2013-09-03 06:39:00,66.5,58.0,30.20,SSW,204,0.0,0.0,74,0.00,,---,0.00,VWS V14.01,2013-09-03 12:39:00,
2013-09-03 06:44:00,66.5,58.2,30.20,SSW,204,0.0,0.0,75,0.00,,---,0.00,VWS V14.01,2013-09-03 12:44:00,
2013-09-03 06:49:00,66.5,58.2,30.20,SSW,204,0.0,0.0,75,0.00,,---,0.00,VWS V14.01,2013-09-03 12:49:00,
2013-09-03 06:54:00,66.5,58.3,30.20,SSW,204,0.0,0.0,75,0.00,,---,0.00,VWS V14.01,2013-09-03 12:54:00,
2013-09-03 07:00:00,66.6,58.3,30.20,SSW,204,0.0,0.0,75,0.00,,---,0.00,VWS V14.01,2013-09-03 13:00:00,
2013-09-03 07:05:00,66.7,58.3,30.20,SSW,204,0.0,0.0,74,0.00,,---,0.00,VWS V14.01,2013-09-03 13:05:00,
2013-09-03 07:10:00,66.8,58.4,30.20,SSW,204,0.0,0.0,74,0.00,,---,0.00,VWS V14.01,2013-09-03 13:10:00,
2013-09-03 07:15:00,66.9,58.3,30.20,SSW,204,0.0,0.0,74,0.00,,---,0.00,VWS V14.01,2013-09-03 13:15:00,
2013-09-03 07:20:00,66.9,58.5,30.20,SSW,204,0.0,0.0,74,0.00,,---,0.00,VWS V14.01,2013-09-03 13:20:00,
2013-09-03 07:25:00,66.9,58.5,30.20,SSW,204,0.0,0.0,74,0.00,,---,0.00,VWS V14.01,2013-09-03 13:25:00,
2013-09-03 07:30:00,66.9,58.5,30.20,SSW,204,0.0,0.0,74,0.00,,---,0.00,VWS V14.01,2013-09-03 13:30:00,
2013-09-03 07:35:00,67.1,58.5,30.20,SSW,204,0.0,0.0,74,0.00,,---,0.00,VWS V14.01,2013-09-03 13:35:00,
2013-09-03 07:40:00,67.3,58.8,30.20,SSW,204,0.0,0.0,74,0.00,,---,0.00,VWS V14.01,2013-09-03 13:40:00,
2013-09-03 07:45:00,67.5,59.2,30.21,SSW,204,0.0,0.0,75,0.00,,---,0.00,VWS V14.01,2013-09-03 13:45:00,
2013-09-03 07:50:00,67.8,59.5,30.21,SSW,204,0.0,0.0,75,0.00,,---,0.00,VWS V14.01,2013-09-03 13:50:00,
2013-09-03 07:55:00,68.0,59.0,30.21,SSW,204,0.0,0.0,73,0.00,,---,0.00,VWS V14.01,2013-09-03 13:55:00,
2013-09-03 08:00:00,68.4,59.1,30.21,SSW,204,0.0,0.0,72,0.00,,---,0.00,VWS V14.01,2013-09-03 14:00:00,
2013-09-03 08:05:00,68.8,58.9,30.21,SSW,204,0.0,0.0,71,0.01,,---,0.01,VWS V14.01,2013-09-03 14:05:00,
2013-09-03 08:10:00,69.2,58.8,30.21,SSW,204,0.0,0.0,70,0.01,,---,0.01,VWS V14.01,2013-09-03 14:10:00,
2013-09-03 08:15:00,69.5,59.0,30.21,SSW,204,0.0,0.0,69,0.01,,---,0.01,VWS V14.01,2013-09-03 14:15:00,
2013-09-03 08:20:00,69.9,58.8,30.20,SSW,204,0.0,0.0,68,0.01,,---,0.01,VWS V14.01,2013-09-03 14:20:00,
2013-09-03 08:25:00,70.1,58.6,30.21,SSW,204,0.0,0.0,67,0.01,,---,0.01,VWS V14.01,2013-09-03 14:25:00,
2013-09-03 08:30:00,70.5,58.4,30.21,SSW,204,0.0,0.0,66,0.01,,---,0.01,VWS V14.01,2013-09-03 14:30:00,
2013-09-03 08:35:00,70.9,58.4,30.21,SSW,204,0.0,0.0,65,0.01,,---,0.01,VWS V14.01,2013-09-03 14:35:00,
2013-09-03 08:40:00,71.3,58.0,30.21,SSW,204,0.0,0.0,63,0.01,,---,0.01,VWS V14.01,2013-09-03 14:40:00,
2013-09-03 08:45:00,71.8,57.8,30.21,SSW,204,0.0,0.0,61,0.01,,---,0.01,VWS V14.01,2013-09-03 14:45:00,
2013-09-03 08:50:00,72.3,57.4,30.21,SSW,204,0.0,0.0,59,0.01,,---,0.01,VWS V14.01,2013-09-03 14:50:00,
2013-09-03 08:55:00,72.9,57.5,30.21,SSW,204,0.0,0.0,58,0.01,,---,0.01,VWS V14.01,2013-09-03 14:55:00,
2013-09-03 09:00:00,73.3,56.4,30.21,SSW,204,0.0,0.0,56,0.01,,---,0.01,VWS V14.01,2013-09-03 15:00:00,
2013-09-03 09:05:00,73.8,55.9,30.21,SSW,204,0.0,0.0,54,0.01,,---,0.01,VWS V14.01,2013-09-03 15:05:00,
2013-09-03 09:10:00,74.3,55.6,30.21,SSW,204,0.0,0.0,52,0.01,,---,0.01,VWS V14.01,2013-09-03 15:10:00,
2013-09-03 09:15:00,74.7,55.0,30.21,SSW,204,0.0,0.0,50,0.01,,---,0.01,VWS V14.01,2013-09-03 15:15:00,
2013-09-03 09:20:00,75.1,54.9,30.21,SSW,204,0.0,0.0,50,0.01,,---,0.01,VWS V14.01,2013-09-03 15:20:00,
2013-09-03 09:25:00,75.4,54.8,30.21,SSW,204,0.0,0.0,49,0.01,,---,0.01,VWS V14.01,2013-09-03 15:25:00,
2013-09-03 09:30:00,75.7,54.9,30.21,SSW,204,0.0,0.0,48,0.01,,---,0.01,VWS V14.01,2013-09-03 15:30:00,
2013-09-03 09:35:00,76.3,55.0,30.21,South,191,0.0,0.0,48,0.01,,---,0.01,VWS V14.01,2013-09-03 15:35:00,
2013-09-03 09:40:00,76.6,54.9,30.21,South,191,0.0,0.0,47,0.01,,---,0.01,VWS V14.01,2013-09-03 15:40:00,
2013-09-03 09:45:00,77.2,54.0,30.21,South,170,0.0,0.0,45,0.01,,---,0.01,VWS V14.01,2013-09-03 15:45:00,
2013-09-03 09:50:00,77.5,53.2,30.21,SSW,201,0.0,3.5,43,0.01,,---,0.01,VWS V14.01,2013-09-03 15:50:00,
2013-09-03 09:55:00,77.8,53.6,30.21,SW,215,0.0,0.0,43,0.01,,---,0.01,VWS V14.01,2013-09-03 15:55:00,
2013-09-03 10:01:00,78.4,54.0,30.21,SW,215,0.0,0.0,43,0.01,,---,0.01,VWS V14.01,2013-09-03 16:01:00,
2013-09-03 10:06:00,78.7,54.3,30.21,SW,214,0.0,0.0,43,0.01,,---,0.01,VWS V14.01,2013-09-03 16:06:00,
2013-09-03 10:11:00,79.0,53.7,30.22,SW,214,0.0,0.0,42,0.01,,---,0.01,VWS V14.01,2013-09-03 16:11:00,
2013-09-03 10:16:00,79.4,53.5,30.22,SW,235,1.7,3.1,41,0.01,,---,0.01,VWS V14.01,2013-09-03 16:16:00,
2013-09-03 10:21:00,79.8,53.4,30.22,SSE,166,0.0,4.2,40,0.01,,---,0.01,VWS V14.01,2013-09-03 16:21:00,
2013-09-03 10:26:00,80.3,52.8,30.21,SSE,166,0.0,0.0,38,0.01,,---,0.01,VWS V14.01,2013-09-03 16:26:00,
2013-09-03 10:31:00,80.8,53.1,30.22,WSW,243,3.4,3.5,38,0.01,,---,0.01,VWS V14.01,2013-09-03 16:31:00,
2013-09-03 10:36:00,81.0,52.6,30.22,SSE,153,0.0,0.0,37,0.01,,---,0.01,VWS V14.01,2013-09-03 16:36:00,
2013-09-03 10:41:00,81.6,52.3,30.22,SSE,153,0.0,0.0,36,0.01,,---,0.01,VWS V14.01,2013-09-03 16:41:00,
2013-09-03 10:46:00,82.0,51.7,30.22,SSW,200,0.0,0.0,35,0.01,,---,0.01,VWS V14.01,2013-09-03 16:46:00,
2013-09-03 10:51:00,82.5,51.2,30.22,SSW,200,0.0,0.0,34,0.01,,---,0.01,VWS V14.01,2013-09-03 16:51:00,
2013-09-03 10:56:00,82.9,52.2,30.22,SSW,200,0.0,0.0,35,0.01,,---,0.01,VWS V14.01,2013-09-03 16:56:00,
2013-09-03 11:01:00,83.2,50.6,30.22,SSW,200,0.0,0.0,32,0.01,,---,0.01,VWS V14.01,2013-09-03 17:01:00,
2013-09-03 11:06:00,83.6,49.8,30.22,East,79,0.0,3.1,31,0.01,,---,0.01,VWS V14.01,2013-09-03 17:06:00,
2013-09-03 11:11:00,83.8,48.9,30.22,ESE,104,5.3,5.7,30,0.01,,---,0.01,VWS V14.01,2013-09-03 17:11:00,
2013-09-03 11:16:00,84.0,49.0,30.21,ESE,111,0.0,0.0,30,0.01,,---,0.01,VWS V14.01,2013-09-03 17:16:00,
2013-09-03 11:21:00,84.2,48.7,30.21,SE,141,5.6,6.2,29,0.01,,---,0.01,VWS V14.01,2013-09-03 17:21:00,
2013-09-03 11:26:00,84.7,49.0,30.21,NE,48,0.0,0.0,29,0.01,,---,0.01,VWS V14.01,2013-09-03 17:26:00,
2013-09-03 11:31:00,84.9,48.4,30.21,East,91,6.0,6.7,28,0.01,,---,0.01,VWS V14.01,2013-09-03 17:31:00,
2013-09-03 11:36:00,85.0,48.5,30.21,East,79,0.0,0.0,28,0.01,,---,0.01,VWS V14.01,2013-09-03 17:36:00,
2013-09-03 11:41:00,85.3,48.7,30.21,SSW,210,4.2,5.8,28,0.01,,---,0.01,VWS V14.01,2013-09-03 17:41:00,
2013-09-03 11:46:00,85.5,48.8,30.21,SSE,149,0.0,0.0,28,0.01,,---,0.01,VWS V14.01,2013-09-03 17:46:00,
2013-09-03 11:51:00,85.9,48.7,30.21,SSE,158,4.2,8.1,28,0.01,,---,0.01,VWS V14.01,2013-09-03 17:51:00,
2013-09-03 11:56:00,86.0,48.3,30.20,East,91,0.0,0.0,27,0.01,,---,0.01,VWS V14.01,2013-09-03 17:56:00,
2013-09-03 12:01:00,86.2,48.3,30.20,East,93,0.0,0.0,27,0.01,,---,0.01,VWS V14.01,2013-09-03 18:01:00,
2013-09-03 12:06:00,86.4,48.2,30.20,East,93,0.0,0.0,27,0.01,,---,0.01,VWS V14.01,2013-09-03 18:06:00,
2013-09-03 12:12:00,86.6,49.0,30.20,East,93,0.0,0.0,27,0.01,,---,0.01,VWS V14.01,2013-09-03 18:12:00,
2013-09-03 12:17:00,86.9,48.3,30.20,East,93,0.0,0.0,26,0.01,,---,0.01,VWS V14.01,2013-09-03 18:17:00,
2013-09-03 12:22:00,86.9,47.8,30.20,East,93,0.0,0.0,26,0.01,,---,0.01,VWS V14.01,2013-09-03 18:22:00,
2013-09-03 12:27:00,86.6,47.6,30.20,East,93,0.0,0.0,26,0.01,,---,0.01,VWS V14.01,2013-09-03 18:27:00,
2013-09-03 12:32:00,86.9,47.5,30.20,East,93,0.0,0.0,26,0.01,,---,0.01,VWS V14.01,2013-09-03 18:32:00,
2013-09-03 12:37:00,87.1,46.8,30.20,East,93,0.0,0.0,25,0.01,,---,0.01,VWS V14.01,2013-09-03 18:37:00,
2013-09-03 12:42:00,87.4,47.5,30.19,East,93,0.0,0.0,25,0.01,,---,0.01,VWS V14.01,2013-09-03 18:42:00,
2013-09-03 12:47:00,87.7,47.2,30.19,East,93,0.0,0.0,25,0.01,,---,0.01,VWS V14.01,2013-09-03 18:47:00,
2013-09-03 12:52:00,87.7,46.9,30.19,East,93,0.0,0.0,24,0.01,,---,0.01,VWS V14.01,2013-09-03 18:52:00,
2013-09-03 12:57:00,88.0,47.2,30.19,East,93,0.0,0.0,24,0.01,,---,0.01,VWS V14.01,2013-09-03 18:57:00,
2013-09-03 13:02:00,88.3,47.0,30.19,East,93,0.0,0.0,24,0.01,,---,0.01,VWS V14.01,2013-09-03 19:02:00,
2013-09-03 13:07:00,88.6,47.1,30.18,East,93,0.0,0.0,24,0.01,,---,0.01,VWS V14.01,2013-09-03 19:07:00,
2013-09-03 13:12:00,88.9,45.9,30.18,East,93,0.0,0.0,23,0.01,,---,0.01,VWS V14.01,2013-09-03 19:12:00,
2013-09-03 13:17:00,89.1,45.9,30.18,East,93,0.0,0.0,22,0.01,,---,0.01,VWS V14.01,2013-09-03 19:17:00,
2013-09-03 13:22:00,88.9,46.1,30.18,East,93,0.0,0.0,23,0.01,,---,0.01,VWS V14.01,2013-09-03 19:22:00,
2013-09-03 13:27:00,89.3,47.2,30.18,East,93,0.0,0.0,24,0.01,,---,0.01,VWS V14.01,2013-09-03 19:27:00,
2013-09-03 13:32:00,89.7,45.8,30.18,East,93,0.0,0.0,22,0.01,,---,0.01,VWS V14.01,2013-09-03 19:32:00,
2013-09-03 13:37:00,89.9,47.0,30.18,East,93,0.0,0.0,23,0.01,,---,0.01,VWS V14.01,2013-09-03 19:37:00,
2013-09-03 13:43:00,90.5,44.8,30.18,East,93,0.0,0.0,21,0.01,,---,0.01,VWS V14.01,2013-09-03 19:43:00,
2013-09-03 13:48:00,90.9,43.5,30.17,East,93,0.0,0.0,19,0.01,,---,0.01,VWS V14.01,2013-09-03 19:48:00,
2013-09-03 13:53:00,91.2,43.5,30.18,East,93,0.0,0.0,19,0.01,,---,0.01,VWS V14.01,2013-09-03 19:53:00,
2013-09-03 13:58:00,91.5,43.1,30.18,East,93,0.0,0.0,19,0.01,,---,0.01,VWS V14.01,2013-09-03 19:58:00,
2013-09-03 14:03:00,91.4,44.3,30.17,East,93,0.0,0.0,20,0.01,,---,0.01,VWS V14.01,2013-09-03 20:03:00,
2013-09-03 14:08:00,91.1,42.6,30.17,East,93,0.0,0.0,19,0.01,,---,0.01,VWS V14.01,2013-09-03 20:08:00,
2013-09-03 14:13:00,90.6,42.0,30.17,East,93,0.0,0.0,18,0.01,,---,0.01,VWS V14.01,2013-09-03 20:13:00,
2013-09-03 14:18:00,90.1,43.7,30.17,East,93,0.0,0.0,20,0.01,,---,0.01,VWS V14.01,2013-09-03 20:18:00,
2013-09-03 14:23:00,89.6,43.4,30.17,East,93,0.0,0.0,20,0.01,,---,0.01,VWS V14.01,2013-09-03 20:23:00,
2013-09-03 14:28:00,89.3,42.6,30.17,East,93,0.0,0.0,20,0.01,,---,0.01,VWS V14.01,2013-09-03 20:28:00,
2013-09-03 14:33:00,89.2,43.5,30.16,East,93,0.0,0.0,20,0.01,,---,0.01,VWS V14.01,2013-09-03 20:33:00,
2013-09-03 14:38:00,89.6,41.9,30.16,East,93,0.0,0.0,19,0.01,,---,0.01,VWS V14.01,2013-09-03 20:38:00,
2013-09-03 14:43:00,90.7,45.3,30.16,East,93,0.0,0.0,21,0.01,,---,0.01,VWS V14.01,2013-09-03 20:43:00,
2013-09-03 14:48:00,92.0,43.5,30.16,East,93,0.0,0.0,19,0.01,,---,0.01,VWS V14.01,2013-09-03 20:48:00,
2013-09-03 14:53:00,93.3,42.8,30.16,East,93,0.0,0.0,18,0.01,,---,0.01,VWS V14.01,2013-09-03 20:53:00,
2013-09-03 14:58:00,93.9,44.4,30.15,East,93,0.0,0.0,18,0.01,,---,0.01,VWS V14.01,2013-09-03 20:58:00,
2013-09-03 15:03:00,94.4,42.6,30.15,East,93,0.0,0.0,17,0.01,,---,0.01,VWS V14.01,2013-09-03 21:03:00,
2013-09-03 15:08:00,94.2,44.2,30.15,East,93,0.0,0.0,18,0.01,,---,0.01,VWS V14.01,2013-09-03 21:08:00,
2013-09-03 15:13:00,94.4,43.4,30.14,East,93,0.0,0.0,17,0.01,,---,0.01,VWS V14.01,2013-09-03 21:13:00,
2013-09-03 15:18:00,94.4,40.0,30.15,East,93,0.0,0.0,15,0.01,,---,0.01,VWS V14.01,2013-09-03 21:18:00,
2013-09-03 15:23:00,94.5,42.1,30.14,East,93,0.0,0.0,16,0.01,,---,0.01,VWS V14.01,2013-09-03 21:23:00,
2013-09-03 15:28:00,94.8,43.7,30.14,East,93,0.0,0.0,17,0.01,,---,0.01,VWS V14.01,2013-09-03 21:28:00,
2013-09-03 15:33:00,94.9,43.2,30.14,East,93,0.0,0.0,17,0.01,,---,0.01,VWS V14.01,2013-09-03 21:33:00,
2013-09-03 15:38:00,94.5,41.3,30.14,East,93,0.0,0.0,16,0.01,,---,0.01,VWS V14.01,2013-09-03 21:38:00,
2013-09-03 15:43:00,93.4,41.2,30.14,East,93,0.0,0.0,16,0.01,,---,0.01,VWS V14.01,2013-09-03 21:43:00,
2013-09-03 15:48:00,92.3,42.9,30.14,East,93,0.0,0.0,18,0.01,,---,0.01,VWS V14.01,2013-09-03 21:48:00,
2013-09-03 15:53:00,91.8,42.6,30.14,East,93,0.0,0.0,18,0.01,,---,0.01,VWS V14.01,2013-09-03 21:53:00,
2013-09-03 15:59:00,92.5,42.0,30.14,East,93,0.0,0.0,17,0.01,,---,0.01,VWS V14.01,2013-09-03 21:59:00,
2013-09-03 16:04:00,93.3,41.7,30.14,East,93,0.0,0.0,17,0.01,,---,0.01,VWS V14.01,2013-09-03 22:04:00,
2013-09-03 16:09:00,92.9,39.2,30.14,East,93,0.0,0.0,15,0.01,,---,0.01,VWS V14.01,2013-09-03 22:09:00,
2013-09-03 16:14:00,92.3,40.6,30.14,East,93,0.0,0.0,17,0.01,,---,0.01,VWS V14.01,2013-09-03 22:14:00,
2013-09-03 16:19:00,91.6,42.4,30.14,East,93,0.0,0.0,18,0.01,,---,0.01,VWS V14.01,2013-09-03 22:19:00,
2013-09-03 16:24:00,91.2,43.2,30.14,East,93,0.0,0.0,19,0.01,,---,0.01,VWS V14.01,2013-09-03 22:24:00,
2013-09-03 16:29:00,91.3,42.8,30.13,East,93,0.0,0.0,19,0.01,,---,0.01,VWS V14.01,2013-09-03 22:29:00,
2013-09-03 16:34:00,91.3,42.8,30.13,East,93,0.0,0.0,19,0.01,,---,0.01,VWS V14.01,2013-09-03 22:34:00,
2013-09-03 16:39:00,91.7,43.2,30.13,East,93,0.0,0.0,19,0.01,,---,0.01,VWS V14.01,2013-09-03 22:39:00,
2013-09-03 16:44:00,91.8,43.4,30.13,East,93,0.0,0.0,19,0.01,,---,0.01,VWS V14.01,2013-09-03 22:44:00,
2013-09-03 16:49:00,91.4,44.5,30.13,East,93,0.0,0.0,20,0.01,,---,0.01,VWS V14.01,2013-09-03 22:49:00,
2013-09-03 16:54:00,90.6,43.7,30.13,East,93,0.0,0.0,20,0.01,,---,0.01,VWS V14.01,2013-09-03 22:54:00,
2013-09-03 16:59:00,89.9,44.2,30.13,East,93,0.0,0.0,20,0.01,,---,0.01,VWS V14.01,2013-09-03 22:59:00,
2013-09-03 17:04:00,89.4,45.8,30.14,East,93,0.0,0.0,22,0.01,,---,0.01,VWS V14.01,2013-09-03 23:04:00,
2013-09-03 17:09:00,88.6,45.3,30.14,East,93,0.0,0.0,22,0.01,,---,0.01,VWS V14.01,2013-09-03 23:09:00,
2013-09-03 17:14:00,87.8,45.4,30.14,East,93,0.0,0.0,23,0.01,,---,0.01,VWS V14.01,2013-09-03 23:14:00,
2013-09-03 17:19:00,87.2,44.5,30.14,East,93,0.0,0.0,23,0.01,,---,0.01,VWS V14.01,2013-09-03 23:19:00,
2013-09-03 17:24:00,86.9,46.9,30.14,East,93,0.0,0.0,25,0.01,,---,0.01,VWS V14.01,2013-09-03 23:24:00,
2013-09-03 17:29:00,86.6,46.3,30.14,East,93,0.0,0.0,25,0.01,,---,0.01,VWS V14.01,2013-09-03 23:29:00,
2013-09-03 17:34:00,86.3,47.9,30.14,East,93,0.0,0.0,26,0.01,,---,0.01,VWS V14.01,2013-09-03 23:34:00,
2013-09-03 17:39:00,86.1,49.3,30.14,East,93,0.0,0.0,28,0.01,,---,0.01,VWS V14.01,2013-09-03 23:39:00,
2013-09-03 17:44:00,85.8,48.9,30.14,East,93,0.0,0.0,28,0.01,,---,0.01,VWS V14.01,2013-09-03 23:44:00,
2013-09-03 17:49:00,85.7,47.5,30.14,East,93,0.0,0.0,27,0.01,,---,0.01,VWS V14.01,2013-09-03 23:49:00,
2013-09-03 17:55:00,85.6,50.7,30.14,East,93,0.0,0.0,30,0.01,,---,0.01,VWS V14.01,2013-09-03 23:55:00,
2013-09-03 18:00:00,85.3,50.2,30.14,East,93,0.0,0.0,30,0.01,,---,0.01,VWS V14.01,2013-09-04 00:00:00,
2013-09-03 18:05:00,85.2,51.5,30.14,East,93,0.0,0.0,31,0.01,,---,0.01,VWS V14.01,2013-09-04 00:05:00,
2013-09-03 18:10:00,85.0,51.3,30.14,East,93,0.0,0.0,31,0.01,,---,0.01,VWS V14.01,2013-09-04 00:10:00,
2013-09-03 18:15:00,85.0,52.4,30.15,East,93,0.0,0.0,33,0.01,,---,0.01,VWS V14.01,2013-09-04 00:15:00,
2013-09-03 18:20:00,84.6,48.9,30.15,East,93,0.0,0.0,29,0.01,,---,0.01,VWS V14.01,2013-09-04 00:20:00,
2013-09-03 18:25:00,84.5,49.3,30.15,East,93,0.0,0.0,30,0.01,,---,0.01,VWS V14.01,2013-09-04 00:25:00,
2013-09-03 18:30:00,84.6,47.8,30.15,East,93,0.0,0.0,28,0.01,,---,0.01,VWS V14.01,2013-09-04 00:30:00,
2013-09-03 18:35:00,84.5,47.4,30.15,WNW,290,0.0,0.0,28,0.01,,---,0.01,VWS V14.01,2013-09-04 00:35:00,
2013-09-03 18:40:00,84.2,48.3,30.15,WNW,290,0.0,0.0,29,0.01,,---,0.01,VWS V14.01,2013-09-04 00:40:00,
2013-09-03 18:45:00,83.8,48.2,30.15,WSW,246,3.4,3.4,29,0.01,,---,0.01,VWS V14.01,2013-09-04 00:45:00,
2013-09-03 18:50:00,83.1,49.2,30.15,West,270,0.0,0.0,31,0.01,,---,0.01,VWS V14.01,2013-09-04 00:50:00,
2013-09-03 18:55:00,82.6,48.1,30.15,West,270,0.0,0.0,30,0.01,,---,0.01,VWS V14.01,2013-09-04 00:55:00,
2013-09-03 19:00:00,82.2,47.6,30.14,West,271,0.0,0.0,30,0.01,,---,0.01,VWS V14.01,2013-09-04 01:00:00,
2013-09-03 19:05:00,81.9,47.3,30.14,West,271,0.0,0.0,30,0.01,,---,0.01,VWS V14.01,2013-09-04 01:05:00,
2013-09-03 19:10:00,81.9,48.0,30.14,SSE,160,0.0,0.0,31,0.01,,---,0.01,VWS V14.01,2013-09-04 01:10:00,
2013-09-03 19:15:00,81.8,48.3,30.14,SSE,160,0.0,0.0,31,0.01,,---,0.01,VWS V14.01,2013-09-04 01:15:00,
2013-09-03 19:20:00,81.6,48.4,30.15,SSE,160,0.0,0.0,31,0.01,,---,0.01,VWS V14.01,2013-09-04 01:20:00,
2013-09-03 19:25:00,81.4,48.4,30.15,SSE,160,0.0,0.0,32,0.01,,---,0.01,VWS V14.01,2013-09-04 01:25:00,
2013-09-03 19:30:00,81.2,48.1,30.16,SSE,160,0.0,0.0,31,0.01,,---,0.01,VWS V14.01,2013-09-04 01:30:00,
2013-09-03 19:35:00,80.8,47.3,30.17,SSW,210,0.0,0.0,31,0.01,,---,0.01,VWS V14.01,2013-09-04 01:35:00,
2013-09-03 19:40:00,80.6,48.4,30.17,SSW,201,0.0,0.0,32,0.01,,---,0.01,VWS V14.01,2013-09-04 01:40:00,
2013-09-03 19:45:00,80.2,48.0,30.17,SW,214,0.0,0.0,32,0.01,,---,0.01,VWS V14.01,2013-09-04 01:45:00,
2013-09-03 19:50:00,80.1,48.8,30.17,SW,214,0.0,0.0,33,0.01,,---,0.01,VWS V14.01,2013-09-04 01:50:00,
2013-09-03 19:55:00,80.0,48.3,30.17,SW,214,0.0,0.0,33,0.01,,---,0.01,VWS V14.01,2013-09-04 01:55:00,
2013-09-03 20:00:00,79.9,48.7,30.17,SW,232,0.0,0.0,34,0.01,,---,0.01,VWS V14.01,2013-09-04 02:00:00,
2013-09-03 20:05:00,79.6,48.5,30.17,South,181,0.0,0.0,34,0.01,,---,0.01,VWS V14.01,2013-09-04 02:05:00,
2013-09-03 20:10:00,79.4,48.5,30.18,SW,235,0.0,0.0,34,0.01,,---,0.01,VWS V14.01,2013-09-04 02:10:00,
2013-09-03 20:15:00,79.3,48.2,30.18,SW,235,0.0,0.0,34,0.01,,---,0.01,VWS V14.01,2013-09-04 02:15:00,
2013-09-03 20:20:00,79.0,48.4,30.18,SW,235,0.0,0.0,34,0.01,,---,0.01,VWS V14.01,2013-09-04 02:20:00,
2013-09-03 20:25:00,79.1,49.0,30.18,SW,235,0.0,0.0,35,0.01,,---,0.01,VWS V14.01,2013-09-04 02:25:00,
2013-09-03 20:30:00,79.0,47.9,30.18,SW,235,0.0,0.0,34,0.01,,---,0.01,VWS V14.01,2013-09-04 02:30:00,
2013-09-03 20:35:00,78.8,48.1,30.18,SW,235,0.0,0.0,34,0.01,,---,0.01,VWS V14.01,2013-09-04 02:35:00,
2013-09-03 20:40:00,78.6,48.8,30.18,SW,235,0.0,0.0,35,0.01,,---,0.01,VWS V14.01,2013-09-04 02:40:00,
2013-09-03 20:45:00,78.5,48.3,30.19,SW,235,0.0,0.0,35,0.01,,---,0.01,VWS V14.01,2013-09-04 02:45:00,
2013-09-03 20:50:00,78.3,48.7,30.19,WNW,287,0.0,0.0,35,0.01,,---,0.01,VWS V14.01,2013-09-04 02:50:00,
2013-09-03 20:55:00,78.0,48.3,30.19,WNW,287,0.0,0.0,35,0.01,,---,0.01,VWS V14.01,2013-09-04 02:55:00,
2013-09-03 21:00:00,77.9,48.5,30.19,WSW,253,0.0,0.0,36,0.01,,---,0.01,VWS V14.01,2013-09-04 03:00:00,
2013-09-03 21:05:00,77.8,48.5,30.19,WSW,248,0.0,0.0,36,0.01,,---,0.01,VWS V14.01,2013-09-04 03:05:00,
2013-09-03 21:10:00,77.8,48.6,30.19,WSW,248,0.0,0.0,36,0.01,,---,0.01,VWS V14.01,2013-09-04 03:10:00,
2013-09-03 21:15:00,77.7,48.7,30.19,WNW,290,0.0,0.0,36,0.01,,---,0.01,VWS V14.01,2013-09-04 03:15:00,
2013-09-03 21:20:00,77.7,48.9,30.19,WNW,290,0.0,0.0,36,0.01,,---,0.01,VWS V14.01,2013-09-04 03:20:00,
2013-09-03 21:25:00,77.6,49.5,30.20,WNW,290,0.0,0.0,37,0.01,,---,0.01,VWS V14.01,2013-09-04 03:25:00,
2013-09-03 21:30:00,77.4,49.9,30.20,WNW,290,0.0,0.0,38,0.01,,---,0.01,VWS V14.01,2013-09-04 03:30:00,
2013-09-03 21:35:00,77.3,49.2,30.20,WNW,290,0.0,0.0,37,0.01,,---,0.01,VWS V14.01,2013-09-04 03:35:00,
2013-09-03 21:40:00,77.3,50.0,30.20,WNW,290,0.0,0.0,38,0.01,,---,0.01,VWS V14.01,2013-09-04 03:40:00,
2013-09-03 21:45:00,77.2,50.5,30.20,WNW,290,0.0,0.0,39,0.01,,---,0.01,VWS V14.01,2013-09-04 03:45:00,
2013-09-03 21:50:00,77.0,50.5,30.20,WNW,290,0.0,0.0,39,0.01,,---,0.01,VWS V14.01,2013-09-04 03:50:00,
2013-09-03 21:55:00,76.9,50.4,30.20,WNW,290,0.0,0.0,40,0.01,,---,0.01,VWS V14.01,2013-09-04 03:55:00,
2013-09-03 22:00:00,76.8,50.5,30.20,WNW,290,0.0,0.0,40,0.01,,---,0.01,VWS V14.01,2013-09-04 04:00:00,
2013-09-03 22:01:00,76.8,50.7,30.20,WNW,290,0.0,0.0,40,0.01,,---,0.01,VWS V14.01,2013-09-04 04:01:00,
2013-09-03 22:02:00,76.8,50.6,30.20,WNW,290,0.0,0.0,40,0.01,,---,0.01,VWS V14.01,2013-09-04 04:02:00,
2013-09-03 22:07:00,76.6,50.4,30.20,WNW,290,0.0,0.0,40,0.01,,---,0.01,VWS V14.01,2013-09-04 04:07:00,
2013-09-03 22:12:00,76.5,50.5,30.20,WNW,290,0.0,0.0,40,0.01,,---,0.01,VWS V14.01,2013-09-04 04:12:00,
2013-09-03 22:17:00,76.4,50.7,30.20,WNW,290,0.0,0.0,40,0.01,,---,0.01,VWS V14.01,2013-09-04 04:17:00,
2013-09-03 22:22:00,76.2,50.7,30.21,WNW,290,0.0,0.0,41,0.01,,---,0.01,VWS V14.01,2013-09-04 04:22:00,
2013-09-03 22:27:00,75.9,49.8,30.22,WNW,290,0.0,0.0,40,0.01,,---,0.01,VWS V14.01,2013-09-04 04:27:00,
2013-09-03 22:32:00,75.8,49.8,30.22,WNW,290,0.0,0.0,40,0.01,,---,0.01,VWS V14.01,2013-09-04 04:32:00,
2013-09-03 22:37:00,75.7,49.8,30.21,WNW,290,0.0,0.0,40,0.01,,---,0.01,VWS V14.01,2013-09-04 04:37:00,
2013-09-03 22:42:00,75.4,50.0,30.21,WNW,290,0.0,0.0,41,0.01,,---,0.01,VWS V14.01,2013-09-04 04:42:00,
2013-09-03 22:47:00,75.1,50.7,30.21,WNW,290,0.0,0.0,42,0.01,,---,0.01,VWS V14.01,2013-09-04 04:47:00,
2013-09-03 22:52:00,75.0,50.4,30.20,WNW,290,0.0,0.0,42,0.01,,---,0.01,VWS V14.01,2013-09-04 04:52:00,
2013-09-03 22:57:00,74.9,50.4,30.20,WNW,290,0.0,0.0,42,0.01,,---,0.01,VWS V14.01,2013-09-04 04:57:00,
2013-09-03 23:02:00,74.8,50.1,30.20,WNW,290,0.0,0.0,42,0.01,,---,0.01,VWS V14.01,2013-09-04 05:02:00,
2013-09-03 23:07:00,74.6,50.1,30.20,WNW,290,0.0,0.0,42,0.01,,---,0.01,VWS V14.01,2013-09-04 05:07:00,
2013-09-03 23:12:00,74.7,50.4,30.20,WNW,290,0.0,0.0,42,0.01,,---,0.01,VWS V14.01,2013-09-04 05:12:00,
2013-09-03 23:18:00,74.6,50.0,30.20,WNW,290,0.0,0.0,42,0.01,,---,0.01,VWS V14.01,2013-09-04 05:18:00,
2013-09-03 23:23:00,74.4,49.6,30.20,WNW,290,0.0,0.0,42,0.01,,---,0.01,VWS V14.01,2013-09-04 05:23:00,
2013-09-03 23:59:00,71.5,54.3,30.13,WSW,242,0.0,0.0,55,0.00,,---,0.00,VWS V14.01,2013-09-04 05:59:00,